Time;durP1;ratioP1;P1;durP2;ratioP2;P2;SDS_P1;SDS_P2;PMS_P1;PMS_P2;Temp;Humidity;BMP_temperature;BMP_pressure;BME280_temperature;BME280_humidity;BME280_pressure;Samples;Min_cycle;Max_cycle;Signal;HPM_P1;HPM_P2
2024/03/14 00:01:37;;;;;;;6.13;3.40;;;;;;;11.01;100.00;101358.81;5080042;28;20040;-67
2024/03/14 00:04:25;;;;;;;4.43;3.20;;;;;;;10.99;100.00;101352.81;5093844;28;20500;-69
2024/03/14 00:07:14;;;;;;;4.15;3.00;;;;;;;10.98;100.00;101351.16;5092205;28;20059;-68
2024/03/14 00:10:04;;;;;;;6.28;3.25;;;;;;;10.99;100.00;101352.81;5093443;28;20040;-67
2024/03/14 00:12:52;;;;;;;6.47;3.78;;;;;;;10.96;100.00;101345.13;5096563;28;20051;-68
2024/03/14 00:15:42;;;;;;;6.10;3.67;;;;;;;10.96;100.00;101356.03;5081920;28;20327;-68
2024/03/14 00:18:31;;;;;;;4.90;3.70;;;;;;;10.95;100.00;101348.97;5065408;28;20048;-68
2024/03/14 00:21:20;;;;;;;8.13;4.63;;;;;;;10.94;100.00;101350.03;5077097;28;20412;-68
2024/03/14 00:24:08;;;;;;;7.63;5.05;;;;;;;10.95;100.00;101348.13;5076643;28;20142;-67
2024/03/14 00:26:57;;;;;;;7.57;5.35;;;;;;;10.94;100.00;101343.75;5078453;28;20069;-67
2024/03/14 00:29:45;;;;;;;9.43;6.18;;;;;;;10.93;100.00;101337.47;5073619;28;20039;-67
2024/03/14 00:32:34;;;;;;;10.20;6.50;;;;;;;10.93;100.00;101337.47;5077749;28;20040;-67
2024/03/14 00:35:23;;;;;;;12.52;7.00;;;;;;;10.94;100.00;101336.38;5092436;28;20040;-68
2024/03/14 00:38:11;;;;;;;8.50;6.07;;;;;;;10.94;100.00;101336.38;5092053;28;20044;-69
2024/03/14 00:40:59;;;;;;;11.00;7.10;;;;;;;10.93;100.00;101339.38;5076378;28;20157;-68
2024/03/14 00:43:47;;;;;;;12.15;7.05;;;;;;;10.92;100.00;101327.66;5065227;28;20105;-68
2024/03/14 00:46:35;;;;;;;13.80;7.80;;;;;;;10.88;100.00;101335.53;5092535;28;20043;-67
2024/03/14 00:49:23;;;;;;;11.18;7.35;;;;;;;10.88;100.00;101331.97;5077283;28;20419;-68
2024/03/14 00:52:11;;;;;;;12.13;7.40;;;;;;;10.86;100.00;101328.69;5098690;28;20472;-69
2024/03/14 00:54:59;;;;;;;10.65;6.32;;;;;;;10.86;100.00;101328.69;5113721;28;20035;-67
2024/03/14 00:57:47;;;;;;;11.02;6.18;;;;;;;10.84;100.00;101330.84;5099385;28;20048;-68
2024/03/14 01:00:35;;;;;;;10.80;6.68;;;;;;;10.84;100.00;101322.66;5109689;28;20047;-67
2024/03/14 01:03:23;;;;;;;9.70;6.22;;;;;;;10.81;100.00;101324.00;5097834;28;20044;-67
2024/03/14 01:06:14;;;;;;;9.43;5.80;;;;;;;10.83;100.00;101329.22;5112986;28;20040;-68
2024/03/14 01:09:02;;;;;;;8.70;5.55;;;;;;;10.81;100.00;101328.63;5097257;28;20052;-68
2024/03/14 01:11:52;;;;;;;8.90;4.95;;;;;;;10.79;100.00;101322.63;5111484;28;20100;-67
2024/03/14 01:14:40;;;;;;;7.97;4.97;;;;;;;10.78;100.00;101323.72;5111604;28;20039;-67
2024/03/14 01:17:28;;;;;;;9.40;5.30;;;;;;;10.79;100.00;101328.06;5112000;28;20043;-68
2024/03/14 01:20:16;;;;;;;11.13;5.32;;;;;;;10.76;100.00;101323.94;5110590;28;20055;-68
2024/03/14 01:23:07;;;;;;;8.05;5.25;;;;;;;10.76;100.00;101328.59;5082846;28;20047;-67
2024/03/14 01:25:55;;;;;;;7.13;4.60;;;;;;;10.76;100.00;101323.94;5113118;28;20054;-68
2024/03/14 01:28:43;;;;;;;8.23;4.93;;;;;;;10.74;100.00;101319.84;5097423;28;20163;-67
2024/03/14 01:31:32;;;;;;;8.02;4.72;;;;;;;10.74;100.00;101309.75;5097126;28;20138;-67
2024/03/14 01:34:20;;;;;;;9.48;5.35;;;;;;;10.74;100.00;101319.84;5111498;28;20062;-67
2024/03/14 01:37:10;;;;;;;8.43;5.13;;;;;;;10.71;100.00;101309.47;5084100;28;20092;-68
2024/03/14 01:39:58;;;;;;;9.43;5.60;;;;;;;10.71;100.00;101307.56;5096887;28;20071;-68
2024/03/14 01:42:53;;;;;;;9.02;5.38;;;;;;;10.70;100.00;101297.72;5097445;28;20075;-67
2024/03/14 01:45:46;;;;;;;9.23;5.13;;;;;;;10.71;100.00;101293.09;5097904;28;20130;-67
2024/03/14 01:48:34;;;;;;;10.25;5.00;;;;;;;10.70;100.00;101297.72;5068754;28;20044;-68
2024/03/14 01:51:23;;;;;;;10.05;5.80;;;;;;;10.69;100.00;101301.53;5081942;28;20413;-67
2024/03/14 01:54:12;;;;;;;7.75;5.32;;;;;;;10.68;100.00;101286.28;5083758;28;20135;-68
2024/03/14 01:57:00;;;;;;;9.90;5.43;;;;;;;10.65;100.00;101287.59;5099255;28;20044;-68
2024/03/14 01:59:49;;;;;;;8.98;5.47;;;;;;;10.64;100.00;101294.13;5097789;28;20058;-69
2024/03/14 02:02:40;;;;;;;8.98;5.22;;;;;;;10.65;100.00;101292.22;5099184;28;20434;-68
2024/03/14 02:05:32;;;;;;;9.20;4.95;;;;;;;10.68;100.00;101296.31;5083840;28;20059;-67
2024/03/14 02:08:20;;;;;;;8.65;5.88;;;;;;;10.62;100.00;101290.81;5096821;28;20046;-68
2024/03/14 02:11:08;;;;;;;10.00;5.80;;;;;;;10.62;100.00;101281.84;5081838;28;20047;-67
2024/03/14 02:13:57;;;;;;;10.55;6.28;;;;;;;10.61;100.00;101282.94;5082487;28;20126;-68
2024/03/14 02:16:45;;;;;;;12.40;6.20;;;;;;;10.61;100.00;101283.75;5096853;28;20070;-68
2024/03/14 02:19:33;;;;;;;9.43;5.68;;;;;;;10.60;100.00;101282.09;5082677;28;20508;-68
2024/03/14 02:22:21;;;;;;;9.20;4.95;;;;;;;10.60;100.00;101271.19;5092809;28;20043;-68
2024/03/14 02:25:10;;;;;;;8.70;5.45;;;;;;;10.61;100.00;101267.41;5097205;28;20407;-68
2024/03/14 02:27:58;;;;;;;10.10;5.88;;;;;;;10.57;100.00;101266.25;5095147;28;20048;-67
2024/03/14 02:30:46;;;;;;;7.72;5.18;;;;;;;10.56;100.00;101253.72;5082266;28;20352;-68
2024/03/14 02:33:34;;;;;;;7.30;5.38;;;;;;;10.57;100.00;101255.34;5095664;28;20040;-68
2024/03/14 02:36:22;;;;;;;10.13;5.53;;;;;;;10.57;100.00;101249.09;5110976;28;20043;-68
2024/03/14 02:39:10;;;;;;;10.40;5.85;;;;;;;10.56;100.00;101247.44;5093248;28;20428;-67
2024/03/14 02:41:59;;;;;;;8.95;5.85;;;;;;;10.54;100.00;101250.44;5110017;28;20100;-67
2024/03/14 02:44:47;;;;;;;8.73;5.18;;;;;;;10.54;100.00;101249.63;5096730;28;20044;-67
2024/03/14 02:47:36;;;;;;;8.35;5.28;;;;;;;10.54;100.00;101247.72;5097236;28;20420;-67
2024/03/14 02:50:25;;;;;;;11.82;5.80;;;;;;;10.54;100.00;101246.88;5108410;28;20066;-67
2024/03/14 02:53:13;;;;;;;9.20;5.45;;;;;;;10.53;100.00;101248.75;5072493;28;20058;-68
2024/03/14 02:56:01;;;;;;;9.57;5.95;;;;;;;10.53;100.00;101251.50;5090463;28;20097;-68
2024/03/14 02:58:49;;;;;;;9.85;5.85;;;;;;;10.50;100.00;101252.00;5085724;28;20046;-68
2024/03/14 03:01:37;;;;;;;8.70;5.65;;;;;;;10.50;100.00;101254.75;5091454;28;20123;-68
2024/03/14 03:04:30;;;;;;;11.70;6.90;;;;;;;10.49;100.00;101250.38;5091968;28;20036;-68
2024/03/14 03:07:19;;;;;;;8.20;5.65;;;;;;;10.49;100.00;101247.66;5076451;28;20044;-68
2024/03/14 03:10:07;;;;;;;8.82;6.15;;;;;;;10.48;100.00;101246.00;5108878;28;20043;-67
2024/03/14 03:12:55;;;;;;;8.98;5.60;;;;;;;10.45;100.00;101238.34;5067777;28;20122;-67
2024/03/14 03:15:43;;;;;;;10.77;5.68;;;;;;;10.44;100.00;101236.72;5096758;28;20044;-67
2024/03/14 03:18:32;;;;;;;8.90;5.45;;;;;;;10.45;100.00;101233.72;5080484;28;20047;-67
2024/03/14 03:21:20;;;;;;;8.45;5.07;;;;;;;10.45;100.00;101232.91;5068753;28;20492;-67
2024/03/14 03:24:08;;;;;;;10.18;5.68;;;;;;;10.44;100.00;101234.00;5112156;28;20039;-68
2024/03/14 03:26:56;;;;;;;9.52;5.93;;;;;;;10.42;100.00;101227.97;5114091;28;20184;-67
2024/03/14 03:29:44;;;;;;;9.35;5.35;;;;;;;10.42;100.00;101228.78;5085283;28;20032;-68
2024/03/14 03:32:32;;;;;;;8.40;5.13;;;;;;;10.40;100.00;101222.78;5114357;28;20120;-68
2024/03/14 03:35:21;;;;;;;10.65;5.30;;;;;;;10.40;100.00;101221.94;5086720;28;20408;-69
2024/03/14 03:38:16;;;;;;;8.15;5.10;;;;;;;10.37;100.00;101217.03;5098437;28;20111;-68
2024/03/14 03:41:06;;;;;;;8.38;5.63;;;;;;;10.38;100.00;101215.94;5113381;28;20036;-68
2024/03/14 03:43:54;;;;;;;10.63;5.50;;;;;;;10.36;100.00;101218.09;5099008;28;20080;-68
2024/03/14 03:46:44;;;;;;;7.78;5.22;;;;;;;10.30;100.00;101214.50;5086370;28;20048;-68
2024/03/14 03:49:32;;;;;;;7.55;5.00;;;;;;;10.29;100.00;101206.56;5096994;28;20035;-68
2024/03/14 03:52:20;;;;;;;9.82;4.90;;;;;;;10.31;100.00;101218.84;5098115;28;20507;-68
2024/03/14 03:55:16;;;;;;;8.68;5.28;;;;;;;10.30;100.00;101216.41;5100221;28;20557;-68
2024/03/14 03:58:04;;;;;;;7.70;4.90;;;;;;;10.29;100.00;101214.75;5112944;28;20049;-68
2024/03/14 04:01:03;;;;;;;8.95;4.88;;;;;;;10.28;100.00;101207.63;5079020;28;20044;-69
2024/03/14 04:03:52;;;;;;;6.40;4.20;;;;;;;10.31;100.00;101212.59;5079148;28;20052;-69
2024/03/14 04:06:39;;;;;;;8.07;5.05;;;;;;;10.30;100.00;101213.69;5081560;28;20141;-68
2024/03/14 04:09:27;;;;;;;6.50;4.25;;;;;;;10.29;100.00;101212.03;5070558;28;20699;-68
2024/03/14 04:12:15;;;;;;;6.70;4.38;;;;;;;10.30;100.00;101205.50;5084807;28;20055;-68
2024/03/14 04:15:06;;;;;;;6.70;4.22;;;;;;;10.30;100.00;101208.25;5114082;28;20459;-66
2024/03/14 04:17:55;;;;;;;8.20;4.13;;;;;;;10.30;100.00;101209.06;5065711;28;20044;-68
2024/03/14 04:20:46;;;;;;;7.70;4.68;;;;;;;10.28;100.00;101204.91;5090607;28;20523;-68
2024/03/14 04:23:35;;;;;;;6.50;4.35;;;;;;;10.25;100.00;101208.97;5084965;28;20360;-69
2024/03/14 04:26:23;;;;;;;6.57;4.20;;;;;;;10.26;100.00;101204.34;5097382;28;20415;-68
2024/03/14 04:29:11;;;;;;;8.43;4.57;;;;;;;10.23;100.00;101202.94;5097878;28;20047;-68
2024/03/14 04:31:59;;;;;;;5.93;3.95;;;;;;;10.26;100.00;101209.78;5113638;28;20122;-67
2024/03/14 04:34:47;;;;;;;5.80;3.72;;;;;;;10.27;100.00;101211.41;5112912;28;20071;-69
2024/03/14 04:37:36;;;;;;;6.50;3.55;;;;;;;10.27;100.00;101206.81;5097406;28;20050;-68
2024/03/14 04:40:24;;;;;;;6.05;3.85;;;;;;;10.26;100.00;101198.91;5084427;28;20073;-68
2024/03/14 04:43:13;;;;;;;6.90;3.40;;;;;;;10.22;100.00;101204.00;5098165;28;20460;-68
2024/03/14 04:46:01;;;;;;;5.75;3.72;;;;;;;10.21;100.00;101197.75;5098398;28;20047;-69
2024/03/14 04:48:51;;;;;;;6.60;3.95;;;;;;;10.19;100.00;101194.47;5097571;28;20054;-68
2024/03/14 04:51:39;;;;;;;6.13;3.67;;;;;;;10.19;100.00;101199.09;5092636;28;20125;-68
2024/03/14 04:54:27;;;;;;;13.60;3.88;;;;;;;10.16;100.00;101189.53;5092455;28;20052;-68
2024/03/14 04:57:15;;;;;;;5.65;3.55;;;;;;;10.15;100.00;101187.91;5078807;28;20055;-68
2024/03/14 05:00:11;;;;;;;5.72;3.30;;;;;;;10.16;100.00;101194.97;5084359;28;20048;-69
2024/03/14 05:02:59;;;;;;;4.43;3.15;;;;;;;10.17;100.00;101193.91;5099477;28;20044;-68
2024/03/14 05:05:48;;;;;;;4.93;3.60;;;;;;;10.14;100.00;101194.41;5113154;28;20423;-68
2024/03/14 05:08:36;;;;;;;7.43;3.95;;;;;;;10.15;100.00;101193.34;5110842;28;20047;-68
2024/03/14 05:11:24;;;;;;;5.80;3.15;;;;;;;10.14;100.00;101202.56;5112485;28;20051;-68
2024/03/14 05:14:12;;;;;;;5.47;3.60;;;;;;;10.11;100.00;101202.28;5112994;28;20051;-69
2024/03/14 05:17:00;;;;;;;7.55;3.45;;;;;;;10.09;100.00;101199.81;5085300;28;20051;-68
2024/03/14 05:19:48;;;;;;;5.90;3.53;;;;;;;10.10;100.00;101198.75;5113019;28;20036;-69
2024/03/14 05:22:36;;;;;;;5.38;3.03;;;;;;;10.09;100.00;101194.34;5114678;28;20123;-68
2024/03/14 05:25:24;;;;;;;4.60;2.85;;;;;;;10.07;100.00;101196.50;5112743;28;20070;-69
2024/03/14 05:28:12;;;;;;;4.60;3.10;;;;;;;10.07;100.00;101201.13;5099723;28;20666;-69
2024/03/14 05:31:01;;;;;;;5.43;3.30;;;;;;;10.01;100.00;101197.53;5081879;28;20043;-69
2024/03/14 05:33:50;;;;;;;5.78;3.40;;;;;;;10.02;100.00;101196.44;5097745;28;20054;-68
2024/03/14 05:36:38;;;;;;;5.35;3.35;;;;;;;10.00;100.00;101201.31;5098104;28;20035;-68
2024/03/14 05:39:27;;;;;;;6.13;3.35;;;;;;;9.97;100.00;101197.22;5083150;28;20043;-68
2024/03/14 05:42:18;;;;;;;6.05;3.40;;;;;;;9.96;100.00;101194.78;5097516;28;20128;-68
2024/03/14 05:45:07;;;;;;;5.75;3.45;;;;;;;9.95;100.00;101199.38;5084181;28;20048;-68
2024/03/14 05:48:11;;;;;;;3.85;3.10;;;;;;;9.94;100.00;101192.28;5096805;28;20039;-68
2024/03/14 05:50:59;;;;;;;4.68;2.90;;;;;;;9.94;100.00;101191.47;5097149;28;20054;-68
2024/03/14 05:53:47;;;;;;;5.70;2.97;;;;;;;9.92;100.00;101194.44;5082302;28;20139;-68
2024/03/14 05:56:35;;;;;;;5.13;3.17;;;;;;;9.92;100.00;101182.75;5096992;28;20047;-68
2024/03/14 05:59:24;;;;;;;5.65;3.25;;;;;;;9.89;100.00;101188.69;5111634;28;20052;-68
2024/03/14 06:02:12;;;;;;;5.45;3.08;;;;;;;9.90;100.00;101184.88;5110088;28;20058;-68
2024/03/14 06:05:00;;;;;;;4.70;3.00;;;;;;;9.85;100.00;101182.94;5109045;28;20035;-68
2024/03/14 06:07:50;;;;;;;5.40;3.25;;;;;;;9.85;100.00;101190.28;5102852;28;20572;-68
2024/03/14 06:10:38;;;;;;;3.85;2.92;;;;;;;9.86;100.00;101194.63;5083300;28;20047;-68
2024/03/14 06:13:27;;;;;;;4.90;3.17;;;;;;;9.86;100.00;101189.19;5082412;28;20063;-68
2024/03/14 06:16:15;;;;;;;5.82;3.20;;;;;;;9.85;100.00;101188.38;5095510;28;20249;-68
2024/03/14 06:19:03;;;;;;;5.18;3.22;;;;;;;9.82;100.00;101184.25;5116356;28;20039;-68
2024/03/14 06:21:51;;;;;;;5.03;3.03;;;;;;;9.81;100.00;101185.34;5105481;28;20051;-69
2024/03/14 06:24:39;;;;;;;5.90;3.67;;;;;;;9.81;100.00;101179.91;5091100;28;20129;-68
2024/03/14 06:27:28;;;;;;;4.70;3.30;;;;;;;9.80;100.00;101180.97;5097715;28;20073;-68
2024/03/14 06:30:16;;;;;;;5.68;3.85;;;;;;;9.75;100.00;101182.81;5082666;28;20677;-68
2024/03/14 06:33:06;;;;;;;6.95;3.60;;;;;;;9.66;100.00;101193.31;5086526;28;20051;-69
2024/03/14 06:35:55;;;;;;;7.20;3.80;;;;;;;9.60;100.00;101186.97;5082439;28;20051;-68
2024/03/14 06:38:43;;;;;;;6.72;4.03;;;;;;;9.57;100.00;101186.66;5100676;28;20054;-68
2024/03/14 06:41:31;;;;;;;10.48;4.20;;;;;;;9.56;100.00;101196.72;5072420;28;20047;-68
2024/03/14 06:44:22;;;;;;;6.65;3.97;;;;;;;9.54;100.00;101196.13;5112191;28;20039;-70
2024/03/14 06:47:10;;;;;;;6.57;3.60;;;;;;;9.61;100.00;101187.81;4729852;28;10000428;-69
2024/03/14 06:49:58;;;;;;;7.60;3.45;;;;;;;9.75;100.00;101188.25;5092805;28;20134;-69
2024/03/14 06:52:48;;;;;;;6.38;3.03;;;;;;;9.77;100.00;101189.66;5106024;28;20575;-69
2024/03/14 06:55:36;;;;;;;4.70;2.95;;;;;;;9.82;100.00;101191.59;5092047;28;20518;-69
2024/03/14 06:58:27;;;;;;;6.20;3.58;;;;;;;9.85;100.00;101193.81;5107311;28;20054;-69
2024/03/14 07:01:15;;;;;;;7.00;4.00;;;;;;;9.81;100.00;101198.94;5112263;28;20069;-68
2024/03/14 07:04:04;;;;;;;6.07;3.88;;;;;;;9.86;100.00;101194.63;5095203;28;20129;-70
2024/03/14 07:06:52;;;;;;;8.98;4.60;;;;;;;9.76;100.00;101196.16;5112202;28;20521;-68
2024/03/14 07:09:40;;;;;;;5.97;3.63;;;;;;;9.79;100.00;101195.66;5081644;28;20546;-69
2024/03/14 07:12:28;;;;;;;5.50;3.47;;;;;;;9.82;100.00;101186.97;5110530;28;20059;-69
2024/03/14 07:15:17;;;;;;;6.45;3.90;;;;;;;9.85;100.00;101193.81;5082159;28;20428;-69
2024/03/14 07:18:08;;;;;;;7.25;4.45;;;;;;;9.88;100.00;101197.91;5111378;28;20624;-69
2024/03/14 07:20:56;;;;;;;8.13;4.05;;;;;;;9.89;100.00;101196.88;5091467;28;20510;-68
2024/03/14 07:23:48;;;;;;;5.85;3.47;;;;;;;9.92;100.00;101188.19;5075504;28;20168;-68
2024/03/14 07:26:40;;;;;;;7.65;3.85;;;;;;;9.95;100.00;101191.19;5063715;28;20189;-68
2024/03/14 07:29:28;;;;;;;6.60;3.42;;;;;;;9.97;100.00;101193.69;5078155;28;20764;-69
2024/03/14 07:32:16;;;;;;;6.35;3.78;;;;;;;9.99;100.00;101194.25;5095002;28;20462;-69
2024/03/14 07:35:04;;;;;;;6.68;3.30;;;;;;;10.00;100.00;101195.88;5096823;28;20048;-69
2024/03/14 07:37:52;;;;;;;5.93;3.80;;;;;;;10.02;100.00;101180.94;5112142;28;20518;-69
2024/03/14 07:40:43;;;;;;;6.47;4.00;;;;;;;10.03;100.00;101190.75;5094540;28;20042;-68
2024/03/14 07:43:33;;;;;;;7.88;4.30;;;;;;;10.05;100.00;101185.03;5082819;28;20418;-68
2024/03/14 07:46:22;;;;;;;11.02;4.93;;;;;;;10.09;100.00;101191.63;5110447;28;20189;-70
2024/03/14 07:49:10;;;;;;;14.93;5.10;;;;;;;10.11;100.00;101192.19;5097775;28;20047;-69
2024/03/14 07:51:58;;;;;;;24.45;6.82;;;;;;;10.14;100.00;101191.69;5089836;28;20047;-70
2024/03/14 07:54:46;;;;;;;25.73;6.75;;;;;;;10.38;100.00;101185.97;5109633;28;20578;-69
2024/03/14 07:57:35;;;;;;;17.98;5.88;;;;;;;10.39;100.00;101187.59;5096852;28;20482;-68
2024/03/14 08:00:25;;;;;;;11.10;4.93;;;;;;;10.36;100.00;101188.13;5080330;28;20044;-69
2024/03/14 08:03:13;;;;;;;11.68;4.80;;;;;;;10.45;100.00;101187.41;5095928;28;20419;-69
2024/03/14 08:06:02;;;;;;;17.58;5.63;;;;;;;10.47;100.00;101183.63;5095569;28;20062;-69
2024/03/14 08:08:50;;;;;;;10.18;4.30;;;;;;;10.48;100.00;101186.06;5094789;28;20059;-69
2024/03/14 08:11:41;;;;;;;15.27;5.68;;;;;;;10.51;100.00;101188.28;5107617;28;20059;-69
2024/03/14 08:14:29;;;;;;;11.45;5.03;;;;;;;10.56;100.00;101182.88;5082630;28;20048;-69
2024/03/14 08:17:20;;;;;;;13.45;4.88;;;;;;;10.61;100.00;101180.19;5095680;28;20122;-69
2024/03/14 08:20:09;;;;;;;22.00;5.95;;;;;;;10.64;100.00;101178.84;5081891;28;20078;-68
2024/03/14 08:22:57;;;;;;;12.13;4.57;;;;;;;10.64;100.00;101182.41;5093614;28;20180;-70
2024/03/14 08:25:47;;;;;;;9.10;3.83;;;;;;;10.52;100.00;101180.94;5095524;28;20039;-69
2024/03/14 08:28:41;;;;;;;6.88;3.40;;;;;;;10.47;100.00;101178.97;5100075;28;20617;-69
2024/03/14 08:31:29;;;;;;;10.82;4.00;;;;;;;10.52;100.00;101181.75;5092115;28;20052;-69
2024/03/14 08:34:18;;;;;;;6.88;3.40;;;;;;;10.57;100.00;101184.50;5101118;28;20044;-69
2024/03/14 08:37:06;;;;;;;10.93;4.28;;;;;;;10.66;100.00;101182.16;5107113;28;20048;-69
2024/03/14 08:39:54;;;;;;;9.45;4.20;;;;;;;10.69;100.00;101180.81;5070458;28;20510;-69
2024/03/14 08:42:42;;;;;;;12.63;4.22;;;;;;;10.73;100.00;101184.66;5083187;28;20070;-69
2024/03/14 08:45:36;;;;;;;17.27;5.20;;;;;;;10.88;100.00;101182.84;5091762;28;20043;-69
2024/03/14 08:48:24;;;;;;;7.28;3.70;;;;;;;10.82;100.00;101180.34;5094761;28;20047;-69
2024/03/14 08:51:12;;;;;;;14.25;4.65;;;;;;;10.80;100.00;101180.63;5107943;28;20621;-68
2024/03/14 08:54:09;;;;;;;10.07;3.90;;;;;;;10.78;100.00;101173.78;5074603;28;20508;-69
2024/03/14 08:56:58;;;;;;;10.15;4.25;;;;;;;10.88;100.00;101179.31;5090340;28;20056;-69
2024/03/14 08:59:46;;;;;;;14.98;4.90;;;;;;;10.95;100.00;101174.47;5094568;27;20509;-69
2024/03/14 09:02:34;;;;;;;8.25;3.92;;;;;;;10.93;100.00;101171.16;5077991;28;20048;-68
2024/03/14 09:05:23;;;;;;;7.82;3.55;;;;;;;10.86;100.00;101176.84;5083943;28;20050;-69
2024/03/14 09:08:11;;;;;;;10.07;4.00;;;;;;;10.94;100.00;101180.97;5098703;28;20055;-70
2024/03/14 09:11:00;;;;;;;6.95;3.58;;;;;;;10.96;100.00;101172.56;5098551;28;20051;-72
2024/03/14 09:13:48;;;;;;;8.48;3.70;;;;;;;10.85;100.00;101179.84;5080544;28;20039;-68
2024/03/14 09:16:37;;;;;;;6.18;3.75;;;;;;;10.81;100.00;101171.34;5113080;28;20249;-69
2024/03/14 09:19:25;;;;;;;3.95;3.25;;;;;;;10.83;100.00;101169.19;5112934;28;20538;-68
2024/03/14 09:22:13;;;;;;;7.57;3.67;;;;;;;10.90;100.00;101176.34;5096749;27;20051;-68
2024/03/14 09:25:02;;;;;;;7.93;3.42;;;;;;;11.01;100.00;101173.41;5078175;28;20052;-69
2024/03/14 09:27:53;;;;;;;11.10;4.03;;;;;;;11.16;100.00;101163.69;5071899;28;20043;-69
2024/03/14 09:30:42;;;;;;;9.68;3.75;;;;;;;11.24;100.00;101161.28;5062017;28;20177;-66
2024/03/14 09:33:30;;;;;;;11.07;4.22;;;;;;;11.27;100.00;101171.66;5100382;28;20044;-68
2024/03/14 09:36:19;;;;;;;12.57;4.18;;;;;;;11.41;100.00;101154.81;5098299;28;20218;-68
2024/03/14 09:39:18;;;;;;;13.40;4.70;;;;;;;11.45;100.00;101162.22;5113070;28;20120;-69
2024/03/14 09:42:06;;;;;;;5.18;3.20;;;;;;;11.22;100.00;101165.38;5086327;28;20044;-69
2024/03/14 09:44:55;;;;;;;7.72;3.70;;;;;;;11.10;100.00;101165.56;5114552;27;20043;-69
2024/03/14 09:47:45;;;;;;;6.38;3.35;;;;;;;11.07;100.00;101156.00;5104147;27;20043;-68
2024/03/14 09:50:35;;;;;;;6.18;3.58;;;;;;;11.07;100.00;101161.47;5101807;28;20492;-68
2024/03/14 09:53:27;;;;;;;6.45;3.05;;;;;;;11.19;100.00;101163.16;5089182;28;20056;-69
2024/03/14 09:56:14;;;;;;;10.88;4.13;;;;;;;11.27;100.00;101168.94;5093107;28;20068;-68
2024/03/14 09:59:05;;;;;;;7.97;3.60;;;;;;;11.35;100.00;101162.16;5112121;28;20176;-69
2024/03/14 10:01:53;;;;;;;8.27;3.53;;;;;;;11.50;100.00;101158.69;5087893;27;20043;-69
2024/03/14 10:04:43;;;;;;;7.32;3.45;;;;;;;11.67;100.00;101163.97;5118580;27;20540;-69
2024/03/14 10:07:31;;;;;;;9.73;3.85;;;;;;;11.68;100.00;101154.66;5113294;27;20039;-69
2024/03/14 10:10:19;;;;;;;6.95;3.20;;;;;;;11.71;100.00;101149.50;5106899;28;20091;-70
2024/03/14 10:13:10;;;;;;;6.72;3.03;;;;;;;11.71;100.00;101143.22;5092334;28;20051;-70
2024/03/14 10:15:58;;;;;;;8.50;3.35;;;;;;;11.84;100.00;101148.19;5101210;28;20146;-70
2024/03/14 10:18:46;;;;;;;10.75;3.47;;;;;;;11.87;100.00;101142.19;5097519;28;20047;-69
2024/03/14 10:21:34;;;;;;;9.48;2.80;;;;;;;11.88;100.00;101143.88;5081921;28;20067;-70
2024/03/14 10:24:27;;;;;;;8.60;3.40;;;;;;;11.91;100.00;101137.03;5076652;28;20075;-69
2024/03/14 10:27:17;;;;;;;8.93;3.30;;;;;;;11.95;100.00;101135.38;5076468;28;20044;-70
2024/03/14 10:30:08;;;;;;;5.05;2.92;;;;;;;11.96;100.00;101134.31;5077392;28;20047;-69
2024/03/14 10:32:56;;;;;;;7.53;2.88;;;;;;;11.92;100.00;101128.56;5076222;28;20055;-69
2024/03/14 10:35:46;;;;;;;5.15;2.50;;;;;;;11.90;100.00;101136.19;5076486;28;20047;-69
2024/03/14 10:38:36;;;;;;;5.85;2.95;;;;;;;12.07;100.00;101118.75;5093021;28;20047;-69
2024/03/14 10:41:25;;;;;;;7.57;3.45;;;;;;;12.07;100.00;101122.31;5082116;28;20093;-70
2024/03/14 10:44:16;;;;;;;7.18;3.45;;;;;;;11.99;100.00;101122.84;5100795;28;20113;-69
2024/03/14 10:47:04;;;;;;;6.30;3.33;;;;;;;11.89;100.00;101129.09;5095858;28;20419;-70
2024/03/14 10:49:53;;;;;;;6.47;2.97;;;;;;;11.85;100.00;101122.50;5067160;28;20075;-70
2024/03/14 10:52:41;;;;;;;10.27;3.38;;;;;;;11.89;100.00;101115.44;5096189;28;20145;-69
2024/03/14 10:55:32;;;;;;;8.93;2.70;;;;;;;12.10;100.00;101110.03;5091890;28;20048;-70
2024/03/14 10:58:21;;;;;;;6.13;2.60;;;;;;;12.27;100.00;101117.97;5077590;28;20112;-69
2024/03/14 11:01:13;;;;;;;6.30;2.63;;;;;;;12.22;100.00;101110.59;5078325;28;20475;-69
2024/03/14 11:04:02;;;;;;;7.50;3.00;;;;;;;12.25;100.00;101109.22;5095129;28;20039;-70
2024/03/14 11:06:53;;;;;;;5.47;3.08;;;;;;;12.26;100.00;101103.47;5060161;28;20048;-70
2024/03/14 11:10:06;;;;;;;6.03;2.60;;;;;;;12.36;100.00;101110.84;5080135;28;20048;-70
2024/03/14 11:13:13;;;;;;;4.22;2.50;;;;;;;12.31;100.00;101110.84;5081177;28;20040;-69
2024/03/14 11:16:05;;;;;;;5.05;2.20;;;;;;;12.32;100.00;101107.06;5056063;28;20075;-77
2024/03/14 11:18:59;;;;;;;3.58;2.17;;;;;;;12.35;100.00;101098.31;5088334;28;20485;-69
2024/03/14 11:21:49;;;;;;;4.15;2.42;;;;;;;12.41;100.00;101093.66;5104997;28;20064;-69
2024/03/14 11:24:37;;;;;;;5.93;2.60;;;;;;;12.47;100.00;101100.75;5084979;28;20500;-69
2024/03/14 11:27:26;;;;;;;3.58;2.17;;;;;;;12.53;100.00;101088.72;5078128;28;20117;-74
2024/03/14 11:30:16;;;;;;;4.07;2.20;;;;;;;12.57;100.00;101084.34;5081185;28;20056;-69
2024/03/14 11:33:08;;;;;;;4.25;2.35;;;;;;;12.62;100.00;101097.19;5076233;28;20048;-69
2024/03/14 11:35:58;;;;;;;4.07;2.30;;;;;;;12.65;100.00;101086.53;5077516;28;20067;-69
2024/03/14 11:38:47;;;;;;;3.22;2.00;;;;;;;12.70;100.00;101078.34;5064242;28;20116;-70
2024/03/14 11:41:40;;;;;;;6.30;2.42;;;;;;;12.83;100.00;101076.13;5095169;28;20048;-70
2024/03/14 11:44:30;;;;;;;4.40;2.25;;;;;;;12.90;100.00;101082.13;5096278;28;20044;-70
2024/03/14 11:47:41;;;;;;;3.88;1.92;;;;;;;12.94;100.00;101069.50;5086644;28;20055;-69
2024/03/14 11:50:35;;;;;;;6.28;2.35;;;;;;;13.03;100.00;101067.03;5099083;28;20058;-69
2024/03/14 11:53:23;;;;;;;6.13;2.60;;;;;;;13.04;100.00;101061.28;5114037;28;20514;-69
2024/03/14 11:56:11;;;;;;;6.72;2.33;;;;;;;13.00;100.00;101061.03;5099104;28;20109;-69
2024/03/14 11:59:00;;;;;;;5.93;2.40;;;;;;;12.99;100.00;101053.91;5085073;28;20136;-69
2024/03/14 12:01:51;;;;;;;4.15;2.50;;;;;;;13.01;100.00;101056.34;5098575;28;20052;-70
2024/03/14 12:04:40;;;;;;;6.85;2.20;;;;;;;13.15;100.00;101045.66;5085602;28;20062;-69
2024/03/14 12:07:30;;;;;;;4.85;2.10;;;;;;;13.20;100.00;101042.88;5113544;28;20040;-69
2024/03/14 12:10:18;;;;;;;5.18;2.25;;;;;;;13.29;100.00;101040.44;5085983;28;20192;-70
2024/03/14 12:13:15;;;;;;;4.80;1.90;;;;;;;13.38;100.00;101045.03;5098754;28;20044;-70
2024/03/14 12:16:04;;;;;;;4.90;2.10;;;;;;;13.40;100.00;101036.56;5113346;28;20050;-70
2024/03/14 12:18:53;;;;;;;5.03;2.42;;;;;;;13.39;100.00;101037.63;5114163;28;20052;-70
2024/03/14 12:21:53;;;;;;;5.07;2.15;;;;;;;13.43;100.00;101025.03;5084600;28;20043;-70
2024/03/14 12:24:42;;;;;;;3.25;2.00;;;;;;;13.43;100.00;101019.56;5074245;28;20459;-70
2024/03/14 12:27:31;;;;;;;3.97;1.92;;;;;;;13.50;100.00;101017.31;5057573;28;20058;-70
2024/03/14 12:30:20;;;;;;;4.22;2.05;;;;;;;13.49;100.00;101012.13;5100575;28;20048;-69
2024/03/14 12:33:11;;;;;;;3.50;2.00;;;;;;;13.53;100.00;101008.53;5116681;27;20050;-69
2024/03/14 12:36:00;;;;;;;4.85;2.25;;;;;;;13.62;100.00;101001.38;5119195;27;20069;-70
2024/03/14 12:38:52;;;;;;;4.40;2.28;;;;;;;13.63;100.00;100997.50;5118293;27;20415;-70
2024/03/14 12:41:41;;;;;;;5.78;2.17;;;;;;;13.67;100.00;100986.00;5118394;27;20042;-70
2024/03/14 12:44:28;;;;;;;6.65;2.08;;;;;;;13.67;100.00;100983.28;5104693;27;20043;-69
2024/03/14 12:47:18;;;;;;;4.25;2.13;;;;;;;13.72;100.00;100977.75;5103652;27;20172;-70
2024/03/14 12:50:22;;;;;;;4.28;1.90;;;;;;;13.76;100.00;100970.63;5090734;27;20129;-69
2024/03/14 12:53:15;;;;;;;4.95;1.92;;;;;;;13.80;100.00;100974.41;5044661;28;20493;-69
2024/03/14 12:56:04;;;;;;;3.10;1.98;;;;;;;13.82;100.00;100961.25;5059028;28;20546;-70
2024/03/14 12:58:54;;;;;;;3.67;2.00;;;;;;;13.84;100.00;100964.53;5057544;28;20045;-70